createdAt,value
2019-06-20T00:01:23.174Z,11.10
2019-06-20T00:03:52.328Z,10.83
2019-06-20T00:06:20.533Z,10.70
2019-06-20T00:08:49.680Z,10.40
2019-06-20T00:11:18.242Z,9.13
2019-06-20T00:13:46.768Z,9.57
2019-06-20T00:16:15.306Z,7.97
2019-06-20T00:18:44.122Z,7.57
2019-06-20T00:21:12.989Z,7.03
2019-06-20T00:23:41.666Z,6.60
2019-06-20T00:26:09.939Z,7.50
2019-06-20T00:28:38.481Z,5.90
2019-06-20T00:31:06.634Z,6.17
2019-06-20T00:33:34.962Z,5.97
2019-06-20T00:36:03.789Z,6.40
2019-06-20T00:38:32.570Z,4.80
2019-06-20T00:41:00.779Z,4.73
2019-06-20T00:43:29.111Z,5.27
2019-06-20T00:45:57.361Z,5.17
2019-06-20T00:48:25.642Z,4.67
2019-06-20T00:50:54.265Z,5.67
2019-06-20T00:53:22.986Z,5.10
2019-06-20T00:55:51.529Z,4.70
2019-06-20T00:58:20.175Z,5.47
2019-06-20T01:00:48.317Z,4.77
2019-06-20T01:03:19.133Z,4.93
2019-06-20T01:05:47.306Z,5.13
2019-06-20T01:08:15.591Z,4.87
2019-06-20T01:10:43.775Z,5.00
2019-06-20T01:13:12.239Z,5.07
2019-06-20T01:15:40.743Z,5.30
2019-06-20T01:18:09.373Z,5.50
2019-06-20T01:20:37.578Z,5.53
2019-06-20T01:23:06.369Z,5.93
2019-06-20T01:25:40.143Z,5.67
2019-06-20T01:28:09.112Z,5.40
2019-06-20T01:30:37.681Z,6.30
2019-06-20T01:33:06.237Z,6.77
2019-06-20T01:35:34.485Z,5.80
2019-06-20T01:38:02.761Z,7.07
2019-06-20T01:40:31.480Z,6.17
2019-06-20T01:42:59.731Z,7.03
2019-06-20T01:45:28.026Z,7.10
2019-06-20T01:47:56.176Z,6.87
2019-06-20T01:50:24.382Z,6.93
2019-06-20T01:52:52.605Z,6.90
2019-06-20T01:55:21.235Z,7.57
2019-06-20T01:57:49.689Z,7.77
2019-06-20T02:00:46.728Z,6.47
2019-06-20T02:03:16.154Z,7.53
2019-06-20T02:05:44.929Z,7.37
2019-06-20T02:08:13.234Z,8.07
2019-06-20T02:10:42.627Z,8.27
2019-06-20T02:13:11.091Z,8.73
2019-06-20T02:15:39.421Z,8.50
2019-06-20T02:18:07.769Z,8.70
2019-06-20T02:20:39.892Z,8.57
2019-06-20T02:23:08.150Z,8.83
2019-06-20T02:25:36.398Z,9.37
2019-06-20T02:28:04.763Z,8.93
2019-06-20T02:30:33.280Z,8.97
2019-06-20T02:33:01.652Z,8.87
2019-06-20T02:35:30.049Z,9.60
2019-06-20T02:37:58.587Z,10.30
2019-06-20T02:40:26.917Z,10.50
2019-06-20T02:42:55.306Z,10.53
2019-06-20T02:45:23.780Z,10.30
2019-06-20T02:47:52.854Z,10.43
2019-06-20T02:50:21.500Z,10.83
2019-06-20T02:52:50.277Z,11.00
2019-06-20T02:55:18.415Z,11.40
2019-06-20T02:57:46.650Z,10.83
2019-06-20T03:00:17.134Z,10.97
2019-06-20T03:02:45.615Z,11.53
2019-06-20T03:05:14.741Z,11.30
2019-06-20T03:07:43.194Z,11.00
2019-06-20T03:10:12.090Z,12.07
2019-06-20T03:12:40.567Z,12.20
2019-06-20T03:15:09.628Z,12.03
2019-06-20T03:17:38.127Z,11.37
2019-06-20T03:20:09.165Z,12.90
2019-06-20T03:22:37.449Z,12.93
2019-06-20T03:25:06.049Z,13.33
2019-06-20T03:27:34.182Z,13.73
2019-06-20T03:30:02.545Z,13.87
2019-06-20T03:32:30.796Z,12.77
2019-06-20T03:34:58.955Z,13.90
2019-06-20T03:37:27.414Z,14.43
2019-06-20T03:39:55.574Z,15.37
2019-06-20T03:42:24.038Z,15.73
2019-06-20T03:45:01.697Z,15.30
2019-06-20T03:47:22.555Z,14.83
2019-06-20T03:49:50.747Z,15.63
2019-06-20T03:52:18.993Z,16.03
2019-06-20T03:54:47.440Z,15.97
2019-06-20T03:57:15.915Z,15.93
2019-06-20T03:59:44.171Z,16.23
2019-06-20T04:02:13.004Z,16.17
2019-06-20T04:04:41.501Z,16.57
2019-06-20T04:07:10.255Z,17.73
2019-06-20T04:09:38.433Z,17.30
2019-06-20T04:12:06.619Z,16.93
2019-06-20T04:14:34.784Z,17.17
2019-06-20T04:17:03.991Z,18.07
2019-06-20T04:19:32.286Z,17.30
2019-06-20T04:22:00.633Z,19.83
2019-06-20T04:24:29.097Z,18.43
2019-06-20T04:26:57.285Z,19.87
2019-06-20T04:29:25.634Z,18.70
2019-06-20T04:31:53.995Z,19.93
2019-06-20T04:34:22.153Z,20.27
2019-06-20T04:36:51.028Z,20.83
2019-06-20T04:39:19.858Z,21.33
2019-06-20T04:41:48.181Z,21.37
2019-06-20T04:44:16.406Z,20.67
2019-06-20T04:46:50.550Z,21.47
2019-06-20T04:49:19.915Z,21.83
2019-06-20T04:51:48.881Z,21.37
2019-06-20T04:54:17.237Z,22.37
2019-06-20T04:56:46.299Z,22.30
2019-06-20T04:59:14.833Z,24.20
2019-06-20T05:01:42.978Z,23.40
2019-06-20T05:04:11.274Z,24.57
2019-06-20T05:06:43.705Z,25.00
2019-06-20T05:09:11.969Z,26.80
2019-06-20T05:11:40.977Z,28.57
2019-06-20T05:14:09.922Z,29.30
2019-06-20T05:16:38.356Z,29.70
2019-06-20T05:19:06.595Z,32.50
2019-06-20T05:21:34.850Z,30.80
2019-06-20T05:24:04.165Z,32.07
2019-06-20T05:26:32.376Z,31.57
2019-06-20T05:29:00.734Z,31.40
2019-06-20T05:31:28.886Z,32.10
2019-06-20T05:33:57.120Z,33.23
2019-06-20T05:36:25.374Z,32.20
2019-06-20T05:38:53.890Z,32.03
2019-06-20T05:41:22.388Z,32.60
2019-06-20T05:43:51.212Z,31.63
2019-06-20T05:46:19.979Z,33.30
2019-06-20T05:48:48.578Z,33.37
2019-06-20T05:51:16.744Z,34.33
2019-06-20T05:53:45.387Z,33.17
2019-06-20T05:56:13.975Z,33.27
2019-06-20T05:58:42.678Z,33.43
2019-06-20T06:01:11.836Z,33.37
2019-06-20T06:03:40.496Z,30.47
2019-06-20T06:06:08.730Z,29.90
2019-06-20T06:08:36.883Z,29.37
2019-06-20T06:11:05.775Z,28.27
2019-06-20T06:13:33.926Z,27.70
2019-06-20T06:16:02.141Z,25.50
2019-06-20T06:18:30.394Z,25.70
2019-06-20T06:20:58.596Z,24.80
2019-06-20T06:23:27.024Z,24.67
2019-06-20T06:25:56.472Z,26.33
2019-06-20T06:28:24.647Z,26.47
2019-06-20T06:30:52.839Z,26.30
2019-06-20T06:33:21.755Z,26.00
2019-06-20T06:35:49.956Z,27.67
2019-06-20T06:38:22.124Z,26.40
2019-06-20T06:40:48.212Z,26.27
2019-06-20T06:43:16.510Z,26.27
2019-06-20T06:45:44.847Z,27.30
2019-06-20T06:48:13.298Z,27.57
2019-06-20T06:50:41.596Z,28.23
2019-06-20T06:53:09.875Z,26.87
2019-06-20T06:55:38.078Z,28.40
2019-06-20T06:58:06.379Z,27.70
2019-06-20T07:00:34.605Z,27.67
2019-06-20T07:03:03.590Z,29.37
2019-06-20T07:05:31.824Z,28.87
2019-06-20T07:08:00.073Z,27.43
2019-06-20T07:10:28.306Z,27.03
2019-06-20T07:12:56.578Z,28.27
2019-06-20T07:15:26.948Z,28.20
2019-06-20T07:17:55.131Z,28.73
2019-06-20T07:20:23.539Z,29.57
2019-06-20T07:22:53.786Z,29.50
2019-06-20T07:25:22.026Z,30.03
2019-06-20T07:27:50.336Z,27.90
2019-06-20T07:30:18.684Z,28.10
2019-06-20T07:32:46.862Z,28.73
2019-06-20T07:35:15.215Z,27.90
2019-06-20T07:37:43.854Z,29.80
2019-06-20T07:40:12.843Z,29.57
2019-06-20T07:42:41.002Z,27.47
2019-06-20T07:45:10.599Z,27.90
2019-06-20T07:47:39.061Z,28.00
2019-06-20T07:50:08.607Z,26.63
2019-06-20T07:52:36.908Z,25.57
2019-06-20T07:55:05.857Z,22.30
2019-06-20T07:57:34.407Z,21.03
2019-06-20T08:00:03.578Z,17.50
2019-06-20T08:02:32.020Z,19.27
2019-06-20T08:05:00.154Z,19.30
2019-06-20T08:07:28.448Z,19.07
2019-06-20T08:09:56.591Z,19.10
2019-06-20T08:12:25.051Z,17.77
2019-06-20T08:14:53.990Z,17.37
2019-06-20T08:17:34.833Z,17.30
2019-06-20T08:19:52.422Z,18.03
2019-06-20T08:22:21.180Z,17.30
2019-06-20T08:24:49.669Z,15.90
2019-06-20T08:27:20.141Z,15.40
2019-06-20T08:29:48.577Z,14.90
2019-06-20T08:32:16.749Z,14.37
2019-06-20T08:34:44.884Z,14.13
2019-06-20T08:37:13.061Z,14.47
2019-06-20T08:39:41.268Z,14.00
2019-06-20T08:42:09.765Z,15.13
2019-06-20T08:44:37.957Z,13.40
2019-06-20T08:47:06.202Z,12.00
2019-06-20T08:49:34.349Z,12.43
2019-06-20T08:52:03.920Z,12.47
2019-06-20T08:54:32.164Z,12.57
2019-06-20T08:57:00.854Z,11.57
2019-06-20T08:59:29.124Z,9.80
2019-06-20T09:01:59.976Z,8.27
2019-06-20T09:04:27.853Z,7.83
2019-06-20T09:06:57.516Z,7.60
2019-06-20T09:09:26.337Z,7.00
2019-06-20T09:11:56.458Z,7.00
2019-06-20T09:14:24.790Z,6.43
2019-06-20T09:16:54.698Z,7.70
2019-06-20T09:19:23.642Z,7.23
2019-06-20T09:21:53.903Z,7.47
2019-06-20T09:24:22.131Z,7.47
2019-06-20T09:26:51.129Z,8.70
2019-06-20T09:29:20.636Z,8.07
2019-06-20T09:31:48.911Z,8.87
2019-06-20T09:34:17.559Z,9.40
2019-06-20T09:36:46.080Z,10.07
2019-06-20T09:39:14.819Z,10.73
2019-06-20T09:41:43.189Z,11.00
2019-06-20T09:44:11.444Z,11.50
2019-06-20T09:46:42.802Z,10.67
2019-06-20T09:49:11.523Z,10.60
2019-06-20T09:51:39.694Z,11.60
2019-06-20T09:54:08.139Z,13.00
2019-06-20T09:56:36.568Z,12.90
2019-06-20T09:59:05.367Z,11.50
2019-06-20T10:01:34.224Z,12.67
2019-06-20T10:04:02.701Z,12.47
2019-06-20T10:06:32.238Z,12.80
2019-06-20T10:09:00.391Z,11.13
2019-06-20T10:11:28.569Z,12.30
2019-06-20T10:13:58.475Z,11.07
2019-06-20T10:16:26.877Z,10.17
2019-06-20T10:18:56.474Z,11.23
2019-06-20T10:21:24.878Z,9.87
2019-06-20T10:23:53.952Z,9.07
2019-06-20T10:26:22.714Z,7.37
2019-06-20T10:28:51.402Z,7.43
2019-06-20T10:31:19.894Z,8.40
2019-06-20T10:33:48.445Z,7.77
2019-06-20T10:36:16.682Z,8.57
2019-06-20T10:38:46.420Z,7.63
2019-06-20T10:41:14.845Z,8.10
2019-06-20T10:43:44.697Z,6.90
2019-06-20T10:46:14.018Z,7.23
2019-06-20T10:48:43.104Z,7.50
2019-06-20T10:51:33.078Z,6.67
2019-06-20T10:54:01.387Z,5.77
2019-06-20T10:56:30.002Z,7.13
2019-06-20T10:58:58.559Z,7.40
2019-06-20T11:01:27.209Z,7.20
2019-06-20T11:03:55.566Z,7.63
2019-06-20T11:06:24.919Z,7.13
2019-06-20T11:08:53.605Z,8.03
2019-06-20T11:11:22.249Z,7.63
2019-06-20T11:13:50.422Z,7.80
2019-06-20T11:16:18.665Z,8.17
2019-06-20T11:18:46.935Z,7.83
2019-06-20T11:21:15.801Z,8.90
2019-06-20T11:23:45.247Z,8.07
2019-06-20T11:26:13.503Z,7.30
2019-06-20T11:28:41.647Z,7.30
2019-06-20T11:31:10.264Z,9.43
2019-06-20T11:33:40.281Z,8.67
2019-06-20T11:36:08.598Z,9.70
2019-06-20T11:38:39.026Z,9.03
2019-06-20T11:41:07.187Z,8.73
2019-06-20T11:43:36.298Z,8.90
2019-06-20T11:46:04.648Z,8.53
2019-06-20T11:48:34.347Z,8.80
2019-06-20T11:51:03.127Z,8.60
2019-06-20T11:53:31.859Z,10.10
2019-06-20T11:56:01.471Z,9.87
2019-06-20T11:58:30.627Z,9.10
2019-06-20T12:01:03.993Z,8.93
2019-06-20T12:03:29.413Z,9.10
2019-06-20T12:05:57.703Z,9.17
2019-06-20T12:08:26.305Z,9.47
2019-06-20T12:10:55.138Z,9.97
2019-06-20T12:13:23.374Z,9.87
2019-06-20T12:15:51.570Z,9.57
2019-06-20T12:18:20.287Z,9.47
2019-06-20T12:20:48.913Z,10.50
2019-06-20T12:23:17.590Z,10.67
2019-06-20T12:25:46.639Z,10.33
2019-06-20T12:28:15.103Z,9.87
2019-06-20T12:30:45.593Z,9.73
2019-06-20T12:33:14.256Z,9.73
2019-06-20T12:35:42.795Z,9.13
2019-06-20T12:38:11.499Z,8.93
2019-06-20T12:40:41.340Z,9.37
2019-06-20T12:43:10.351Z,9.97
2019-06-20T12:45:40.017Z,8.60
2019-06-20T12:48:09.432Z,9.17
2019-06-20T12:50:39.731Z,9.50
2019-06-20T12:53:08.915Z,8.10
2019-06-20T12:55:37.272Z,9.83
2019-06-20T12:58:06.830Z,9.70
2019-06-20T13:00:37.634Z,9.97
2019-06-20T13:03:07.469Z,10.47
2019-06-20T13:05:36.021Z,8.90
2019-06-20T13:08:04.560Z,8.70
2019-06-20T13:10:33.145Z,9.70
2019-06-20T13:13:01.671Z,9.67
2019-06-20T13:15:29.899Z,10.50
2019-06-20T13:17:58.070Z,9.40
2019-06-20T13:20:26.369Z,8.97
2019-06-20T13:22:54.894Z,9.83
2019-06-20T13:25:23.413Z,9.87
2019-06-20T13:27:51.904Z,8.97
2019-06-20T13:30:21.850Z,9.57
2019-06-20T13:32:50.018Z,9.43
2019-06-20T13:35:19.342Z,10.23
2019-06-20T13:37:49.210Z,10.23
2019-06-20T13:40:18.403Z,9.43
2019-06-20T13:42:48.064Z,9.20
2019-06-20T13:45:22.685Z,11.03
2019-06-20T13:47:51.437Z,8.90
2019-06-20T13:50:20.125Z,9.50
2019-06-20T13:52:49.615Z,10.00
2019-06-20T13:55:18.891Z,9.57
2019-06-20T13:57:47.332Z,9.23
2019-06-20T14:00:19.709Z,10.03
2019-06-20T14:02:48.982Z,9.07
2019-06-20T14:05:17.959Z,9.97
2019-06-20T14:07:50.485Z,10.53
2019-06-20T14:10:17.081Z,10.13
2019-06-20T14:12:46.718Z,10.80
2019-06-20T14:15:15.712Z,10.87
2019-06-20T14:17:44.905Z,11.57
2019-06-20T14:20:13.620Z,11.03
2019-06-20T14:22:42.872Z,14.87
2019-06-20T14:25:12.250Z,13.57
2019-06-20T14:27:40.455Z,13.83
2019-06-20T14:30:10.716Z,11.03
2019-06-20T14:32:38.906Z,7.67
2019-06-20T14:35:07.366Z,4.80
2019-06-20T14:37:36.407Z,4.40
2019-06-20T14:40:05.447Z,4.20
2019-06-20T14:42:34.482Z,4.53
2019-06-20T14:45:03.626Z,4.30
2019-06-20T14:47:32.057Z,4.27
2019-06-20T14:50:00.664Z,4.00
2019-06-20T14:52:28.861Z,4.10
2019-06-20T14:54:57.465Z,5.67
2019-06-20T14:57:26.025Z,6.10
2019-06-20T14:59:54.496Z,8.47
2019-06-20T15:02:37.192Z,8.73
2019-06-20T15:04:54.379Z,9.80
2019-06-20T15:07:23.449Z,9.07
2019-06-20T15:09:53.144Z,8.10
2019-06-20T15:12:21.842Z,10.27
2019-06-20T15:14:51.392Z,9.63
2019-06-20T15:17:19.843Z,9.57
2019-06-20T15:19:49.379Z,10.33
2019-06-20T15:22:18.085Z,10.70
2019-06-20T15:24:48.619Z,11.13
2019-06-20T15:27:16.862Z,10.87
2019-06-20T15:29:47.056Z,10.53
2019-06-20T15:32:15.744Z,10.47
2019-06-20T15:34:44.448Z,14.53
2019-06-20T15:37:12.965Z,12.20
2019-06-20T15:39:41.521Z,12.50
2019-06-20T15:42:10.385Z,12.67
2019-06-20T15:44:38.609Z,13.87
2019-06-20T15:47:06.818Z,14.23
2019-06-20T15:49:35.019Z,15.63
2019-06-20T15:52:03.231Z,14.80
2019-06-20T15:54:31.405Z,13.20
2019-06-20T15:56:59.698Z,13.87
2019-06-20T15:59:28.144Z,25.10
2019-06-20T16:01:56.357Z,16.33
2019-06-20T16:04:24.563Z,15.50
2019-06-20T16:06:53.583Z,17.53
2019-06-20T16:09:22.630Z,17.37
2019-06-20T16:11:51.273Z,17.60
2019-06-20T16:14:20.162Z,16.13
2019-06-20T16:16:48.870Z,15.63
2019-06-20T16:19:17.109Z,16.37
2019-06-20T16:21:46.233Z,18.07
2019-06-20T16:24:14.452Z,16.70
2019-06-20T16:26:42.666Z,16.17
2019-06-20T16:29:10.909Z,18.43
2019-06-20T16:31:39.049Z,19.00
2019-06-20T16:34:08.367Z,24.90
2019-06-20T16:36:36.913Z,19.10
2019-06-20T16:39:07.150Z,19.53
2019-06-20T16:41:35.390Z,20.37
2019-06-20T16:44:03.721Z,21.30
2019-06-20T16:46:32.237Z,20.80
2019-06-20T16:49:00.382Z,20.07
2019-06-20T16:51:29.311Z,20.03
2019-06-20T16:53:57.645Z,22.17
2019-06-20T16:56:25.920Z,20.23
2019-06-20T16:58:54.088Z,18.70
2019-06-20T17:01:22.668Z,19.80
2019-06-20T17:03:52.325Z,19.20
2019-06-20T17:06:20.963Z,19.83
2019-06-20T17:08:49.416Z,16.10
2019-06-20T17:11:17.576Z,18.73
2019-06-20T17:13:46.059Z,19.30
2019-06-20T17:16:14.300Z,18.83
2019-06-20T17:18:42.583Z,18.57
2019-06-20T17:21:11.098Z,19.50
2019-06-20T17:23:39.253Z,18.73
2019-06-20T17:26:07.795Z,19.43
2019-06-20T17:28:36.874Z,19.73
2019-06-20T17:31:05.401Z,17.30
2019-06-20T17:33:33.658Z,17.23
2019-06-20T17:36:14.420Z,18.27
2019-06-20T17:38:32.294Z,18.53
2019-06-20T17:41:01.391Z,18.10
2019-06-20T17:43:29.764Z,17.10
2019-06-20T17:45:58.047Z,15.03
2019-06-20T17:48:26.205Z,15.60
2019-06-20T17:50:54.664Z,14.73
2019-06-20T17:53:22.953Z,13.40
2019-06-20T17:55:51.312Z,12.63
2019-06-20T17:58:19.569Z,12.07
2019-06-20T18:00:47.744Z,10.57
2019-06-20T18:03:16.221Z,10.23
2019-06-20T18:05:45.880Z,10.80
2019-06-20T18:08:15.601Z,10.90
2019-06-20T18:10:43.884Z,11.17
2019-06-20T18:13:12.072Z,11.13
2019-06-20T18:15:41.908Z,10.90
2019-06-20T18:18:10.228Z,11.27
2019-06-20T18:20:38.532Z,12.07
2019-06-20T18:23:06.988Z,11.63
2019-06-20T18:25:35.297Z,11.60
2019-06-20T18:28:04.053Z,11.83
2019-06-20T18:30:40.505Z,11.87
2019-06-20T18:33:09.046Z,11.53
2019-06-20T18:35:37.261Z,12.00
2019-06-20T18:38:05.866Z,12.27
2019-06-20T18:40:34.037Z,12.43
2019-06-20T18:43:02.800Z,10.63
2019-06-20T18:45:31.105Z,9.83
2019-06-20T18:47:59.502Z,10.37
2019-06-20T18:50:29.561Z,9.80
2019-06-20T18:52:58.156Z,10.97
2019-06-20T18:55:26.442Z,9.87
2019-06-20T18:57:54.957Z,10.13
2019-06-20T19:00:34.058Z,10.73
2019-06-20T19:02:54.979Z,11.30
2019-06-20T19:05:23.234Z,11.87
2019-06-20T19:07:51.498Z,12.20
2019-06-20T19:10:24.438Z,11.67
2019-06-20T19:12:52.638Z,12.67
2019-06-20T19:15:24.585Z,12.37
2019-06-20T19:17:52.738Z,12.03
2019-06-20T19:20:21.280Z,13.40
2019-06-20T19:22:49.680Z,12.73
2019-06-20T19:25:17.991Z,13.70
2019-06-20T19:27:47.092Z,12.40
2019-06-20T19:30:16.943Z,13.50
2019-06-20T19:32:45.141Z,13.90
2019-06-20T19:35:13.467Z,14.57
2019-06-20T19:37:41.633Z,14.77
2019-06-20T19:40:12.413Z,14.73
2019-06-20T19:42:40.760Z,14.47
2019-06-20T19:45:10.640Z,15.50
2019-06-20T19:47:39.284Z,15.50
2019-06-20T19:50:10.935Z,16.53
2019-06-20T19:52:39.237Z,15.80
2019-06-20T19:55:07.828Z,14.83
2019-06-20T19:57:36.792Z,16.33
2019-06-20T20:00:06.032Z,17.10
2019-06-20T20:02:34.234Z,15.60
2019-06-20T20:05:17.807Z,16.83
2019-06-20T20:07:34.358Z,17.20
2019-06-20T20:10:03.440Z,16.77
2019-06-20T20:12:31.643Z,17.70
2019-06-20T20:15:01.639Z,16.77
2019-06-20T20:17:30.040Z,17.00
2019-06-20T20:19:58.196Z,16.70
2019-06-20T20:22:26.529Z,16.40
2019-06-20T20:24:55.032Z,18.20
2019-06-20T20:27:23.521Z,17.07
2019-06-20T20:29:52.198Z,15.87
2019-06-20T20:32:20.384Z,15.90
2019-06-20T20:34:48.600Z,16.70
2019-06-20T20:37:17.656Z,15.57
2019-06-20T20:39:45.875Z,14.87
2019-06-20T20:42:17.746Z,13.40
2019-06-20T20:44:45.714Z,14.00
2019-06-20T20:47:14.090Z,13.23
2019-06-20T20:49:42.775Z,13.87
2019-06-20T20:52:10.975Z,13.80
2019-06-20T20:54:39.469Z,11.83
2019-06-20T20:57:07.645Z,12.53
2019-06-20T20:59:35.865Z,11.60
2019-06-20T21:02:04.473Z,12.20
2019-06-20T21:04:32.669Z,10.90
2019-06-20T21:07:00.809Z,9.57
2019-06-20T21:09:29.272Z,10.57
2019-06-20T21:11:57.749Z,9.87
2019-06-20T21:14:25.984Z,10.70
2019-06-20T21:16:54.263Z,8.70
2019-06-20T21:19:22.497Z,8.57
2019-06-20T21:21:50.768Z,7.37
2019-06-20T21:24:19.378Z,7.47
2019-06-20T21:26:49.955Z,7.27
2019-06-20T21:29:17.993Z,7.60
2019-06-20T21:31:46.283Z,6.73
2019-06-20T21:34:14.951Z,7.17
2019-06-20T21:36:43.631Z,7.23
2019-06-20T21:39:11.885Z,7.17
2019-06-20T21:41:40.470Z,7.43
2019-06-20T21:44:09.159Z,7.93
2019-06-20T21:46:37.841Z,7.63
2019-06-20T21:49:06.198Z,7.80
2019-06-20T21:51:34.471Z,8.47
2019-06-20T21:54:02.722Z,8.40
2019-06-20T21:56:30.899Z,8.80
2019-06-20T21:58:59.040Z,8.17
2019-06-20T22:01:27.313Z,7.83
2019-06-20T22:03:55.469Z,8.43
2019-06-20T22:06:26.252Z,8.43
2019-06-20T22:08:54.533Z,9.57
2019-06-20T22:11:22.718Z,8.97
2019-06-20T22:13:51.648Z,9.53
2019-06-20T22:16:20.522Z,8.90
2019-06-20T22:18:48.673Z,7.70
2019-06-20T22:21:17.227Z,8.93
2019-06-20T22:23:45.684Z,7.77
2019-06-20T22:26:13.969Z,8.60
2019-06-20T22:28:42.431Z,8.10
2019-06-20T22:31:10.606Z,8.70
2019-06-20T22:33:39.331Z,8.70
2019-06-20T22:36:07.501Z,8.53
2019-06-20T22:38:36.504Z,9.67
2019-06-20T22:41:04.997Z,8.67
2019-06-20T22:43:33.839Z,9.53
2019-06-20T22:46:02.139Z,9.77
2019-06-20T22:48:30.714Z,9.63
2019-06-20T22:50:59.210Z,9.60
2019-06-20T22:53:27.592Z,9.93
2019-06-20T22:55:55.854Z,11.43
2019-06-20T22:58:24.370Z,11.27
2019-06-20T23:00:53.168Z,11.33
2019-06-20T23:03:21.402Z,11.83
2019-06-20T23:05:49.745Z,11.17
2019-06-20T23:08:18.282Z,11.50
2019-06-20T23:10:46.445Z,12.47
2019-06-20T23:13:14.746Z,11.97
2019-06-20T23:15:43.364Z,12.03
2019-06-20T23:18:12.218Z,11.60
2019-06-20T23:20:40.413Z,10.87
2019-06-20T23:23:09.022Z,11.83
2019-06-20T23:25:39.172Z,12.10
2019-06-20T23:28:07.511Z,11.67
2019-06-20T23:30:35.750Z,11.40
2019-06-20T23:33:04.035Z,11.20
2019-06-20T23:35:32.223Z,9.53
2019-06-20T23:38:00.741Z,11.00
2019-06-20T23:40:29.386Z,10.97
2019-06-20T23:42:57.583Z,11.47
2019-06-20T23:45:25.934Z,10.80
2019-06-20T23:47:54.140Z,10.70
2019-06-20T23:50:22.815Z,11.37
2019-06-20T23:52:57.032Z,11.07
2019-06-20T23:55:25.878Z,10.97
2019-06-20T23:57:54.412Z,10.87
